createdAt,value
2023-02-27T00:02:00.600Z,1.20
2023-02-27T00:06:54.504Z,1.60
2023-02-27T00:11:48.240Z,1.58
2023-02-27T00:14:15.336Z,1.88
2023-02-27T00:19:09.020Z,1.45
2023-02-27T00:24:04.878Z,1.42
2023-02-27T00:26:32.032Z,1.45
2023-02-27T00:31:26.112Z,1.70
2023-02-27T00:33:53.460Z,1.67
2023-02-27T00:38:47.214Z,1.60
2023-02-27T00:43:41.136Z,2.40
2023-02-27T00:48:35.083Z,2.15
2023-02-27T00:53:29.764Z,1.60
2023-02-27T00:55:56.856Z,1.52
2023-02-27T01:00:50.616Z,1.85
2023-02-27T01:05:44.369Z,1.45
2023-02-27T01:10:38.137Z,1.35
2023-02-27T01:13:07.123Z,1.73
2023-02-27T01:18:00.825Z,1.95
2023-02-27T01:20:28.827Z,2.53
2023-02-27T01:25:22.535Z,1.92
2023-02-27T01:27:50.366Z,1.88
2023-02-27T01:30:17.602Z,1.40
2023-02-27T01:32:45.196Z,1.75
2023-02-27T01:35:13.043Z,1.50
2023-02-27T01:37:40.288Z,1.55
2023-02-27T01:40:08.358Z,1.58
2023-02-27T01:42:35.520Z,1.67
2023-02-27T01:47:52.615Z,1.17
2023-02-27T01:50:20.034Z,1.65
2023-02-27T01:52:50.543Z,1.15
2023-02-27T01:55:19.103Z,1.40
2023-02-27T01:57:48.319Z,1.30
2023-02-27T02:00:15.851Z,1.55
2023-02-27T02:02:50.429Z,1.38
2023-02-27T02:05:17.523Z,1.38
2023-02-27T02:10:13.374Z,1.00
2023-02-27T02:12:41.241Z,1.27
2023-02-27T02:15:09.592Z,1.10
2023-02-27T02:17:40.078Z,1.40
2023-02-27T02:20:45.514Z,1.40
2023-02-27T02:23:21.693Z,1.42
2023-02-27T02:26:18.387Z,1.38
2023-02-27T02:29:12.326Z,1.20
2023-02-27T02:31:39.539Z,1.20
2023-02-27T02:34:25.686Z,1.70
2023-02-27T02:37:17.825Z,1.20
2023-02-27T02:39:48.392Z,1.35
2023-02-27T02:42:26.731Z,1.30
2023-02-27T02:44:59.644Z,1.60
2023-02-27T02:47:29.601Z,1.67
2023-02-27T02:49:56.722Z,1.42
2023-02-27T02:52:44.989Z,1.38
2023-02-27T02:55:17.300Z,1.50
2023-02-27T02:57:49.677Z,1.30
2023-02-27T03:00:19.304Z,1.35
2023-02-27T03:02:48.736Z,1.52
2023-02-27T03:05:24.943Z,1.63
2023-02-27T03:08:02.835Z,1.40
2023-02-27T03:10:38.307Z,1.40
2023-02-27T03:13:25.764Z,1.13
2023-02-27T03:15:56.801Z,1.48
2023-02-27T03:18:25.798Z,1.27
2023-02-27T03:20:55.882Z,1.70
2023-02-27T03:23:25.959Z,1.17
2023-02-27T03:25:55.390Z,1.20
2023-02-27T03:28:25.797Z,1.10
2023-02-27T03:31:01.003Z,1.60
2023-02-27T03:33:28.489Z,1.30
2023-02-27T03:38:46.691Z,1.30
2023-02-27T03:41:26.022Z,1.13
2023-02-27T03:44:26.519Z,1.30
2023-02-27T03:46:53.741Z,1.30
2023-02-27T03:49:21.011Z,1.20
2023-02-27T03:51:49.953Z,1.48
2023-02-27T03:54:22.304Z,1.35
2023-02-27T03:57:08.448Z,1.45
2023-02-27T04:02:04.675Z,1.25
2023-02-27T04:04:35.468Z,1.40
2023-02-27T04:07:25.519Z,1.40
2023-02-27T04:10:01.716Z,1.58
2023-02-27T04:12:38.403Z,1.75
2023-02-27T04:15:05.468Z,1.58
2023-02-27T04:20:02.110Z,1.58
2023-02-27T04:22:40.005Z,1.25
2023-02-27T04:25:18.588Z,1.20
2023-02-27T04:28:04.185Z,1.20
2023-02-27T04:30:42.918Z,1.20
2023-02-27T04:33:11.615Z,1.33
2023-02-27T04:35:38.707Z,1.17
2023-02-27T04:38:08.914Z,1.17
2023-02-27T04:40:48.411Z,1.33
2023-02-27T04:43:17.245Z,1.52
2023-02-27T04:45:46.120Z,1.30
2023-02-27T04:48:20.171Z,1.27
2023-02-27T04:50:50.697Z,1.20
2023-02-27T04:53:46.860Z,1.20
2023-02-27T04:56:17.611Z,1.25
2023-02-27T04:58:47.560Z,1.20
2023-02-27T05:01:17.430Z,1.30
2023-02-27T05:03:47.109Z,1.45
2023-02-27T05:06:15.848Z,1.10
2023-02-27T05:08:50.203Z,1.35
2023-02-27T05:11:29.666Z,1.60
2023-02-27T05:13:59.612Z,1.50
2023-02-27T05:16:33.113Z,1.08
2023-02-27T05:19:01.565Z,1.48
2023-02-27T05:21:35.002Z,1.55
2023-02-27T05:24:02.063Z,1.35
2023-02-27T05:26:37.495Z,1.67
2023-02-27T05:29:14.574Z,2.33
2023-02-27T05:31:48.610Z,1.80
2023-02-27T05:34:38.316Z,1.80
2023-02-27T05:37:11.496Z,1.77
2023-02-27T05:39:41.191Z,1.88
2023-02-27T05:42:12.255Z,2.00
2023-02-27T05:44:43.042Z,1.95
2023-02-27T05:47:12.876Z,2.00
2023-02-27T05:49:48.941Z,1.92
2023-02-27T05:52:18.055Z,2.95
2023-02-27T05:54:45.186Z,2.03
2023-02-27T05:57:15.345Z,1.98
2023-02-27T05:59:46.914Z,2.17
2023-02-27T06:02:14.173Z,1.85
2023-02-27T06:04:41.795Z,1.73
2023-02-27T06:07:09.201Z,1.70
2023-02-27T06:09:36.612Z,1.60
2023-02-27T06:12:03.695Z,1.55
2023-02-27T06:14:30.844Z,1.40
2023-02-27T06:19:24.932Z,1.52
2023-02-27T06:21:52.012Z,1.20
2023-02-27T06:24:20.358Z,1.35
2023-02-27T06:26:49.059Z,1.50
2023-02-27T06:31:42.821Z,1.42
2023-02-27T06:36:36.483Z,1.67
2023-02-27T06:39:04.830Z,1.90
2023-02-27T06:41:32.132Z,1.52
2023-02-27T06:43:59.328Z,1.70
2023-02-27T06:48:53.901Z,1.60
2023-02-27T06:51:21.190Z,1.80
2023-02-27T06:53:48.358Z,2.00
2023-02-27T06:58:42.140Z,1.75
2023-02-27T07:01:09.950Z,1.90
2023-02-27T07:03:37.061Z,1.95
2023-02-27T07:06:04.213Z,2.45
2023-02-27T07:10:57.987Z,2.00
2023-02-27T07:15:52.409Z,2.20
2023-02-27T07:18:19.570Z,2.20
2023-02-27T07:20:50.128Z,2.28
2023-02-27T07:23:17.614Z,2.00
2023-02-27T07:25:44.696Z,2.30
2023-02-27T07:28:11.868Z,2.47
2023-02-27T07:33:06.641Z,2.55
2023-02-27T07:35:33.803Z,2.53
2023-02-27T07:40:27.630Z,2.40
2023-02-27T07:42:54.852Z,2.10
2023-02-27T07:45:23.261Z,2.30
2023-02-27T07:47:50.330Z,2.10
2023-02-27T07:50:17.584Z,2.25
2023-02-27T07:52:45.026Z,2.13
2023-02-27T07:55:12.989Z,1.92
2023-02-27T07:57:40.072Z,2.47
2023-02-27T08:00:09.361Z,2.25
2023-02-27T08:02:39.451Z,2.08
2023-02-27T08:05:07.308Z,2.80
2023-02-27T08:07:34.449Z,2.50
2023-02-27T08:12:28.109Z,2.05
2023-02-27T08:14:55.214Z,2.03
2023-02-27T08:17:22.270Z,2.08
2023-02-27T08:19:49.325Z,1.92
2023-02-27T08:22:16.404Z,1.70
2023-02-27T08:24:43.564Z,2.00
2023-02-27T08:29:37.616Z,2.00
2023-02-27T08:34:32.002Z,1.50
2023-02-27T08:39:26.254Z,2.08
2023-02-27T08:44:20.852Z,1.40
2023-02-27T08:46:48.036Z,1.73
2023-02-27T08:49:15.195Z,2.08
2023-02-27T08:54:08.904Z,1.30
2023-02-27T08:59:03.169Z,1.20
2023-02-27T09:01:34.408Z,1.70
2023-02-27T09:04:02.469Z,1.42
2023-02-27T09:06:30.061Z,1.20
2023-02-27T09:08:58.232Z,1.35
2023-02-27T09:11:26.234Z,1.67
2023-02-27T09:13:54.044Z,1.77
2023-02-27T09:16:22.310Z,1.50
2023-02-27T09:18:49.924Z,1.85
2023-02-27T09:21:17.584Z,1.67
2023-02-27T09:23:44.718Z,1.48
2023-02-27T09:28:41.900Z,1.45
2023-02-27T09:31:09.527Z,1.80
2023-02-27T09:33:37.352Z,1.33
2023-02-27T09:36:05.850Z,1.85
2023-02-27T09:38:36.477Z,1.60
2023-02-27T09:41:05.188Z,1.30
2023-02-27T09:43:37.445Z,1.40
2023-02-27T09:46:05.213Z,1.40
2023-02-27T09:48:32.310Z,1.20
2023-02-27T09:53:31.217Z,1.52
2023-02-27T09:56:02.508Z,1.13
2023-02-27T09:58:43.858Z,1.48
2023-02-27T10:01:15.521Z,1.33
2023-02-27T10:04:00.706Z,1.30
2023-02-27T10:06:33.896Z,1.10
2023-02-27T10:09:42.435Z,1.08
2023-02-27T10:12:12.722Z,1.40
2023-02-27T10:14:44.167Z,1.40
2023-02-27T10:17:34.658Z,1.27
2023-02-27T10:20:02.807Z,1.17
2023-02-27T10:22:36.507Z,1.40
2023-02-27T10:25:18.190Z,1.10
2023-02-27T10:27:57.422Z,0.73
2023-02-27T10:30:30.289Z,1.05
2023-02-27T10:33:07.338Z,1.15
2023-02-27T10:35:34.418Z,1.27
2023-02-27T10:38:03.341Z,1.00
2023-02-27T10:40:31.246Z,0.88
2023-02-27T10:43:00.942Z,1.08
2023-02-27T10:45:28.239Z,0.73
2023-02-27T10:47:55.601Z,0.65
2023-02-27T10:50:42.601Z,1.05
2023-02-27T10:53:23.363Z,0.90
2023-02-27T10:56:17.126Z,0.73
2023-02-27T10:58:44.312Z,0.98
2023-02-27T11:01:12.063Z,0.80
2023-02-27T11:03:41.516Z,1.45
2023-02-27T11:06:25.083Z,0.52
2023-02-27T11:09:12.608Z,0.93
2023-02-27T11:11:39.864Z,0.80
2023-02-27T11:14:25.056Z,0.68
2023-02-27T11:16:53.519Z,0.90
2023-02-27T11:19:27.013Z,0.90
2023-02-27T11:22:01.337Z,0.93
2023-02-27T11:24:29.110Z,1.10
2023-02-27T11:26:57.708Z,0.77
2023-02-27T11:29:25.431Z,0.70
2023-02-27T11:31:53.741Z,0.90
2023-02-27T11:34:29.910Z,0.80
2023-02-27T11:37:00.515Z,1.02
2023-02-27T11:39:51.016Z,0.50
2023-02-27T11:42:23.535Z,1.10
2023-02-27T11:44:53.308Z,0.88
2023-02-27T11:47:22.572Z,0.90
2023-02-27T11:49:58.750Z,0.93
2023-02-27T11:52:31.641Z,0.93
2023-02-27T11:55:00.496Z,0.70
2023-02-27T11:57:27.555Z,0.80
2023-02-27T11:59:59.938Z,0.90
2023-02-27T12:02:55.249Z,0.93
2023-02-27T12:05:26.460Z,0.90
2023-02-27T12:07:56.395Z,0.80
2023-02-27T12:10:26.437Z,0.57
2023-02-27T12:12:56.427Z,0.63
2023-02-27T12:15:28.410Z,0.60
2023-02-27T12:18:00.293Z,0.57
2023-02-27T12:20:27.472Z,0.73
2023-02-27T12:22:55.247Z,0.77
2023-02-27T12:25:22.364Z,0.85
2023-02-27T12:27:52.467Z,0.80
2023-02-27T12:30:22.200Z,0.90
2023-02-27T12:33:12.697Z,1.02
2023-02-27T12:35:40.522Z,0.82
2023-02-27T12:38:10.260Z,1.00
2023-02-27T12:40:42.190Z,0.70
2023-02-27T12:43:32.684Z,1.08
2023-02-27T12:46:05.153Z,1.00
2023-02-27T12:48:42.897Z,1.13
2023-02-27T12:51:19.799Z,1.00
2023-02-27T12:53:52.660Z,1.10
2023-02-27T12:56:21.089Z,1.00
2023-02-27T12:59:00.176Z,1.02
2023-02-27T13:01:27.593Z,1.30
2023-02-27T13:03:58.727Z,0.90
2023-02-27T13:06:44.402Z,0.98
2023-02-27T13:09:17.444Z,1.13
2023-02-27T13:11:50.308Z,1.10
2023-02-27T13:14:56.175Z,0.85
2023-02-27T13:17:26.817Z,0.90
2023-02-27T13:20:17.134Z,1.13
2023-02-27T13:22:48.661Z,1.13
2023-02-27T13:25:16.284Z,1.23
2023-02-27T13:27:54.688Z,0.88
2023-02-27T13:30:22.814Z,1.05
2023-02-27T13:32:56.182Z,1.05
2023-02-27T13:35:23.412Z,1.13
2023-02-27T13:37:58.489Z,1.40
2023-02-27T13:40:28.650Z,1.20
2023-02-27T13:43:01.817Z,1.13
2023-02-27T13:47:57.013Z,0.80
2023-02-27T13:50:26.939Z,1.10
2023-02-27T13:52:54.268Z,1.15
2023-02-27T13:55:27.299Z,1.00
2023-02-27T13:58:01.170Z,0.90
2023-02-27T14:00:30.271Z,1.13
2023-02-27T14:03:00.320Z,1.00
2023-02-27T14:05:31.168Z,1.00
2023-02-27T14:07:58.670Z,0.90
2023-02-27T14:10:28.648Z,0.93
2023-02-27T14:12:57.550Z,0.82
2023-02-27T14:15:24.665Z,1.27
2023-02-27T14:18:09.299Z,0.60
2023-02-27T14:20:39.747Z,0.80
2023-02-27T14:23:15.778Z,1.40
2023-02-27T14:25:45.642Z,1.10
2023-02-27T14:28:17.337Z,0.75
2023-02-27T14:30:59.583Z,0.95
2023-02-27T14:33:40.539Z,0.98
2023-02-27T14:36:15.977Z,1.17
2023-02-27T14:38:43.283Z,2.30
2023-02-27T14:41:15.560Z,2.20
2023-02-27T14:43:48.484Z,1.70
2023-02-27T14:46:21.378Z,2.17
2023-02-27T14:48:53.028Z,1.75
2023-02-27T14:51:20.134Z,1.67
2023-02-27T14:53:58.218Z,1.50
2023-02-27T14:56:25.540Z,1.27
2023-02-27T14:59:03.724Z,1.10
2023-02-27T15:01:35.251Z,1.05
2023-02-27T15:04:02.771Z,1.20
2023-02-27T15:06:38.436Z,1.40
2023-02-27T15:09:06.760Z,1.10
2023-02-27T15:11:34.143Z,0.95
2023-02-27T15:14:03.132Z,1.10
2023-02-27T15:16:35.770Z,1.00
2023-02-27T15:19:05.820Z,1.20
2023-02-27T15:21:34.017Z,1.13
2023-02-27T15:24:05.470Z,1.50
2023-02-27T15:26:35.616Z,1.30
2023-02-27T15:29:03.056Z,1.40
2023-02-27T15:31:32.179Z,1.30
2023-02-27T15:34:00.432Z,1.77
2023-02-27T15:36:32.296Z,1.50
2023-02-27T15:39:06.926Z,1.73
2023-02-27T15:41:34.346Z,1.40
2023-02-27T15:44:02.480Z,1.38
2023-02-27T15:46:29.828Z,1.40
2023-02-27T15:48:57.177Z,1.33
2023-02-27T15:51:26.135Z,1.38
2023-02-27T15:53:55.009Z,1.90
2023-02-27T15:56:26.176Z,1.88
2023-02-27T15:58:59.521Z,1.50
2023-02-27T16:01:32.351Z,1.92
2023-02-27T16:04:01.068Z,1.85
2023-02-27T16:06:29.914Z,1.60
2023-02-27T16:08:59.134Z,1.50
2023-02-27T16:11:27.532Z,1.92
2023-02-27T16:13:54.848Z,1.58
2023-02-27T16:16:22.066Z,1.25
2023-02-27T16:18:53.489Z,1.42
2023-02-27T16:21:24.831Z,1.42
2023-02-27T16:23:52.251Z,1.40
2023-02-27T16:26:28.020Z,1.40
2023-02-27T16:28:57.224Z,1.30
2023-02-27T16:31:31.784Z,0.95
2023-02-27T16:34:42.840Z,1.00
2023-02-27T16:37:19.816Z,1.30
2023-02-27T16:39:46.925Z,1.23
2023-02-27T16:42:14.033Z,1.30
2023-02-27T16:44:41.094Z,1.70
2023-02-27T16:47:08.159Z,1.08
2023-02-27T16:49:35.567Z,1.30
2023-02-27T16:52:03.830Z,1.30
2023-02-27T16:54:30.913Z,1.60
2023-02-27T16:56:58.098Z,2.28
2023-02-27T16:59:29.541Z,1.67
2023-02-27T17:01:57.219Z,1.58
2023-02-27T17:04:26.182Z,1.77
2023-02-27T17:06:53.518Z,1.42
2023-02-27T17:09:20.645Z,1.55
2023-02-27T17:11:47.993Z,1.60
2023-02-27T17:14:16.051Z,2.03
2023-02-27T17:16:43.244Z,2.10
2023-02-27T17:19:10.482Z,2.15
2023-02-27T17:21:37.700Z,2.75
2023-02-27T17:24:06.067Z,2.38
2023-02-27T17:26:34.160Z,1.77
2023-02-27T17:29:02.610Z,2.08
2023-02-27T17:31:30.105Z,1.90
2023-02-27T17:33:57.248Z,2.08
2023-02-27T17:36:24.845Z,2.10
2023-02-27T17:39:00.659Z,2.50
2023-02-27T17:41:27.962Z,2.17
2023-02-27T17:43:56.217Z,1.90
2023-02-27T17:46:24.742Z,1.58
2023-02-27T17:48:52.053Z,1.90
2023-02-27T17:51:19.328Z,1.85
2023-02-27T17:53:46.543Z,2.20
2023-02-27T17:56:14.388Z,2.30
2023-02-27T17:58:45.280Z,2.00
2023-02-27T18:01:13.779Z,2.17
2023-02-27T18:03:41.689Z,2.80
2023-02-27T18:06:08.818Z,2.55
2023-02-27T18:08:36.365Z,2.80
2023-02-27T18:11:03.774Z,2.67
2023-02-27T18:13:30.974Z,2.28
2023-02-27T18:15:58.150Z,2.72
2023-02-27T18:18:25.274Z,1.83
2023-02-27T18:23:29.433Z,2.70
2023-02-27T18:25:57.362Z,1.90
2023-02-27T18:28:24.880Z,1.92
2023-02-27T18:30:52.055Z,1.95
2023-02-27T18:33:19.714Z,2.03
2023-02-27T18:35:47.215Z,2.20
2023-02-27T18:38:15.097Z,2.67
2023-02-27T18:43:13.935Z,1.70
2023-02-27T18:45:41.886Z,2.00
2023-02-27T18:48:09.303Z,2.35
2023-02-27T18:50:36.499Z,2.25
2023-02-27T18:53:03.806Z,2.17
2023-02-27T18:55:31.020Z,1.73
2023-02-27T18:57:58.151Z,2.70
2023-02-27T19:00:25.284Z,2.67
2023-02-27T19:02:52.496Z,2.47
2023-02-27T19:05:19.788Z,2.30
2023-02-27T19:07:47.213Z,3.30
2023-02-27T19:10:15.075Z,3.72
2023-02-27T19:12:42.861Z,3.10
2023-02-27T19:15:10.849Z,2.50
2023-02-27T19:17:38.760Z,2.35
2023-02-27T19:20:06.859Z,1.95
2023-02-27T19:22:34.171Z,2.25
2023-02-27T19:25:01.613Z,1.92
2023-02-27T19:27:28.804Z,2.03
2023-02-27T19:29:56.018Z,2.22
2023-02-27T19:32:23.836Z,2.53
2023-02-27T19:34:50.960Z,1.75
2023-02-27T19:37:18.239Z,2.22
2023-02-27T19:39:46.353Z,1.85
2023-02-27T19:42:13.538Z,1.85
2023-02-27T19:44:41.147Z,1.80
2023-02-27T19:47:08.309Z,2.20
2023-02-27T19:49:35.585Z,2.08
2023-02-27T19:52:03.027Z,2.15
2023-02-27T19:54:30.543Z,2.20
2023-02-27T19:56:57.701Z,2.25
2023-02-27T19:59:24.885Z,2.63
2023-02-27T20:01:52.254Z,2.72
2023-02-27T20:04:19.509Z,1.92
2023-02-27T20:06:49.428Z,1.90
2023-02-27T20:09:18.545Z,2.08
2023-02-27T20:11:46.626Z,2.00
2023-02-27T20:14:14.561Z,1.70
2023-02-27T20:16:42.280Z,2.70
2023-02-27T20:19:11.189Z,2.50
2023-02-27T20:21:38.386Z,2.17
2023-02-27T20:24:05.717Z,2.20
2023-02-27T20:26:34.685Z,1.80
2023-02-27T20:29:21.853Z,1.92
2023-02-27T20:31:50.349Z,2.15
2023-02-27T20:34:21.858Z,1.95
2023-02-27T20:36:53.672Z,1.70
2023-02-27T20:39:21.409Z,2.28
2023-02-27T20:41:48.770Z,1.92
2023-02-27T20:44:15.904Z,2.00
2023-02-27T20:49:11.716Z,2.65
2023-02-27T20:51:40.044Z,2.03
2023-02-27T20:54:08.556Z,2.00
2023-02-27T20:56:37.768Z,2.35
2023-02-27T20:59:06.115Z,2.40
2023-02-27T21:01:33.733Z,2.45
2023-02-27T21:04:01.126Z,2.33
2023-02-27T21:06:28.451Z,2.60
2023-02-27T21:08:56.670Z,2.30
2023-02-27T21:11:28.960Z,2.15
2023-02-27T21:13:57.243Z,1.90
2023-02-27T21:16:27.602Z,1.80
2023-02-27T21:18:56.570Z,1.63
2023-02-27T21:21:25.397Z,2.55
2023-02-27T21:23:52.544Z,2.75
2023-02-27T21:26:23.868Z,2.90
2023-02-27T21:28:52.106Z,3.55
2023-02-27T21:31:20.077Z,3.10
2023-02-27T21:33:47.190Z,2.80
2023-02-27T21:38:41.427Z,2.20
2023-02-27T21:41:11.706Z,2.10
2023-02-27T21:43:42.535Z,2.55
2023-02-27T21:46:11.096Z,2.10
2023-02-27T21:48:38.753Z,2.03
2023-02-27T21:51:06.316Z,2.03
2023-02-27T21:53:33.959Z,2.15
2023-02-27T21:56:05.246Z,2.15
2023-02-27T21:58:32.370Z,1.80
2023-02-27T22:00:59.499Z,2.20
2023-02-27T22:03:34.150Z,2.10
2023-02-27T22:06:02.023Z,2.30
2023-02-27T22:08:29.291Z,2.40
2023-02-27T22:10:57.190Z,1.98
2023-02-27T22:13:24.584Z,2.22
2023-02-27T22:15:52.130Z,2.20
2023-02-27T22:18:19.213Z,2.10
2023-02-27T22:23:13.361Z,2.35
2023-02-27T22:28:08.062Z,2.03
2023-02-27T22:30:35.204Z,2.55
2023-02-27T22:33:02.388Z,2.00
2023-02-27T22:35:29.646Z,1.80
2023-02-27T22:37:56.772Z,2.20
2023-02-27T22:40:23.938Z,2.40
2023-02-27T22:42:51.098Z,2.47
2023-02-27T22:45:18.222Z,2.80
2023-02-27T22:50:12.388Z,3.13
2023-02-27T22:52:39.548Z,3.08
2023-02-27T22:55:07.076Z,2.90
2023-02-27T22:57:34.229Z,3.30
2023-02-27T23:02:33.322Z,2.38
2023-02-27T23:05:00.691Z,2.75
2023-02-27T23:07:27.790Z,2.40
2023-02-27T23:12:22.113Z,2.33
2023-02-27T23:14:50.309Z,2.33
2023-02-27T23:17:17.828Z,2.45
2023-02-27T23:22:12.909Z,2.22
2023-02-27T23:27:25.083Z,2.15
2023-02-27T23:29:53.116Z,1.85
2023-02-27T23:34:49.571Z,2.08
2023-02-27T23:37:17.100Z,2.58
2023-02-27T23:39:44.223Z,1.80
2023-02-27T23:47:45.846Z,2.35
2023-02-27T23:50:13.136Z,2.70
2023-02-27T23:52:40.260Z,2.47
2023-02-27T23:57:34.999Z,2.53
